EXS78GK ENBR-EGBB
Flight info
| Callsign | EXS78GK |
|---|---|
| Flight time | 1h 29m |
| Altitude | 36000 |
| Route | EPOTU DCT KLONN DCT DIGBI DCT OMENU |
| Aircraft | A321/M-SDE3FGHIRWY/LB1 |
Departure
| Time | 2026-04-29 15:55 |
|---|---|
| Airport | Bergen Airport, Flesland (ENBR) |
Arrival
| Time | 2026-04-29 17:25 |
|---|---|
| Airport | Birmingham Airport (EGBB) |
| Time | Latitude | Longitude | Altitude | Speed | Heading |
|---|---|---|---|---|---|
| 2026-04-29 15:20 | 60.28814 | 5.22685 | 175 ft | 0 kts | 11° |
| 2026-04-29 15:44 | 60.28813 | 5.22684 | 175 ft | 2 kts | 11° |
| 2026-04-29 15:44 | 60.28788 | 5.22673 | 175 ft | 4 kts | 15° |
| 2026-04-29 15:45 | 60.28762 | 5.22657 | 175 ft | 4 kts | 21° |
| 2026-04-29 15:45 | 60.28740 | 5.22639 | 175 ft | 1 kts | 25° |
| 2026-04-29 15:50 | 60.28742 | 5.22638 | 175 ft | 1 kts | 11° |
| 2026-04-29 15:51 | 60.28745 | 5.22624 | 175 ft | 1 kts | 295° |
| 2026-04-29 15:51 | 60.28729 | 5.22582 | 174 ft | 8 kts | 235° |
| 2026-04-29 15:51 | 60.28695 | 5.22462 | 172 ft | 11 kts | 245° |
| 2026-04-29 15:51 | 60.28659 | 5.22371 | 167 ft | 8 kts | 196° |
| 2026-04-29 15:52 | 60.28594 | 5.22388 | 166 ft | 11 kts | 169° |
| 2026-04-29 15:52 | 60.28517 | 5.22414 | 164 ft | 12 kts | 171° |
| 2026-04-29 15:52 | 60.28432 | 5.22441 | 162 ft | 13 kts | 171° |
| 2026-04-29 15:52 | 60.28342 | 5.22470 | 159 ft | 13 kts | 171° |
| 2026-04-29 15:53 | 60.28235 | 5.22508 | 156 ft | 18 kts | 169° |
| 2026-04-29 15:53 | 60.28133 | 5.22543 | 153 ft | 13 kts | 171° |
| 2026-04-29 15:53 | 60.28061 | 5.22475 | 152 ft | 12 kts | 245° |
| 2026-04-29 15:53 | 60.28048 | 5.22345 | 153 ft | 8 kts | 260° |
| 2026-04-29 15:54 | 60.28049 | 5.22259 | 153 ft | 4 kts | 304° |
| 2026-04-29 15:54 | 60.28069 | 5.22243 | 153 ft | 2 kts | 347° |
| 2026-04-29 15:54 | 60.28072 | 5.22241 | 153 ft | 3 kts | 348° |
| 2026-04-29 15:54 | 60.28351 | 5.22149 | 155 ft | 77 kts | 351° |
| 2026-04-29 15:55 | 60.29082 | 5.21899 | 162 ft | 134 kts | 350° |
| 2026-04-29 15:55 | 60.30122 | 5.21558 | 438 ft | 154 kts | 348° |
| 2026-04-29 15:55 | 60.31156 | 5.21229 | 1263 ft | 149 kts | 349° |
| 2026-04-29 15:55 | 60.32179 | 5.20878 | 1936 ft | 147 kts | 349° |
| 2026-04-29 15:56 | 60.33207 | 5.20521 | 2397 ft | 157 kts | 350° |
| 2026-04-29 15:56 | 60.34366 | 5.20115 | 2697 ft | 178 kts | 350° |
| 2026-04-29 15:56 | 60.35638 | 5.19681 | 2991 ft | 193 kts | 351° |
| 2026-04-29 15:56 | 60.37015 | 5.19223 | 3248 ft | 209 kts | 351° |
| 2026-04-29 15:57 | 60.38521 | 5.18726 | 3454 ft | 234 kts | 350° |
| 2026-04-29 15:57 | 60.40217 | 5.18157 | 3816 ft | 253 kts | 350° |
| 2026-04-29 15:57 | 60.41948 | 5.17568 | 4581 ft | 257 kts | 349° |
| 2026-04-29 15:57 | 60.43716 | 5.16979 | 5470 ft | 258 kts | 349° |
| 2026-04-29 15:58 | 60.45535 | 5.16370 | 5771 ft | 262 kts | 348° |
| 2026-04-29 15:58 | 60.47187 | 5.15078 | 5888 ft | 259 kts | 322° |
| 2026-04-29 15:58 | 60.48342 | 5.12308 | 6002 ft | 261 kts | 296° |
| 2026-04-29 15:58 | 60.48742 | 5.08740 | 5985 ft | 263 kts | 269° |
| 2026-04-29 15:59 | 60.48508 | 5.05058 | 5959 ft | 264 kts | 263° |
| 2026-04-29 15:59 | 60.47840 | 5.01593 | 6133 ft | 272 kts | 235° |
| 2026-04-29 15:59 | 60.46456 | 4.98951 | 6900 ft | 279 kts | 213° |
| 2026-04-29 15:59 | 60.44613 | 4.97615 | 7606 ft | 287 kts | 187° |
| 2026-04-29 16:00 | 60.42600 | 4.97794 | 8284 ft | 294 kts | 176° |
| 2026-04-29 16:00 | 60.40555 | 4.98246 | 9021 ft | 296 kts | 175° |
| 2026-04-29 16:00 | 60.38496 | 4.98707 | 9750 ft | 299 kts | 175° |
| 2026-04-29 16:00 | 60.36410 | 4.99163 | 10456 ft | 303 kts | 175° |
| 2026-04-29 16:01 | 60.34275 | 4.99617 | 10842 ft | 318 kts | 175° |
| 2026-04-29 16:01 | 60.31999 | 5.00091 | 10975 ft | 341 kts | 175° |
| 2026-04-29 16:01 | 60.29582 | 5.00591 | 11275 ft | 355 kts | 175° |
| 2026-04-29 16:01 | 60.27109 | 5.01189 | 11839 ft | 361 kts | 170° |
| 2026-04-29 16:02 | 60.24623 | 5.02175 | 12430 ft | 365 kts | 169° |
| 2026-04-29 16:02 | 60.22112 | 5.03132 | 13043 ft | 369 kts | 174° |
| 2026-04-29 16:02 | 60.19541 | 5.03127 | 13624 ft | 372 kts | 190° |
| 2026-04-29 16:02 | 60.17060 | 5.01700 | 14225 ft | 372 kts | 207° |
| 2026-04-29 16:03 | 60.14872 | 4.98942 | 14764 ft | 371 kts | 224° |
| 2026-04-29 16:03 | 60.13157 | 4.95116 | 15313 ft | 369 kts | 239° |
| 2026-04-29 16:03 | 60.11875 | 4.90726 | 15868 ft | 370 kts | 244° |
| 2026-04-29 16:03 | 60.10599 | 4.86223 | 16432 ft | 373 kts | 243° |
| 2026-04-29 16:04 | 60.09305 | 4.81690 | 16991 ft | 377 kts | 243° |
| 2026-04-29 16:04 | 60.07991 | 4.77121 | 17518 ft | 381 kts | 243° |
| 2026-04-29 16:04 | 60.06659 | 4.72504 | 18019 ft | 385 kts | 243° |
| 2026-04-29 16:04 | 60.05309 | 4.67834 | 18549 ft | 388 kts | 243° |
| 2026-04-29 16:05 | 60.03948 | 4.63127 | 19031 ft | 392 kts | 243° |
| 2026-04-29 16:05 | 60.02583 | 4.58406 | 19505 ft | 394 kts | 243° |
| 2026-04-29 16:05 | 60.01206 | 4.53659 | 19991 ft | 396 kts | 243° |
| 2026-04-29 16:05 | 59.99819 | 4.48886 | 20469 ft | 398 kts | 243° |
| 2026-04-29 16:06 | 59.98424 | 4.44104 | 20924 ft | 400 kts | 242° |
| 2026-04-29 16:06 | 59.97014 | 4.39280 | 21391 ft | 402 kts | 242° |
| 2026-04-29 16:06 | 59.95603 | 4.34458 | 21851 ft | 404 kts | 242° |
| 2026-04-29 16:06 | 59.94181 | 4.29603 | 22303 ft | 406 kts | 242° |
| 2026-04-29 16:07 | 59.92747 | 4.24720 | 22762 ft | 409 kts | 242° |
| 2026-04-29 16:07 | 59.91319 | 4.19880 | 23211 ft | 411 kts | 242° |
| 2026-04-29 16:07 | 59.89855 | 4.14969 | 23646 ft | 414 kts | 239° |
| 2026-04-29 16:07 | 59.88078 | 4.10429 | 24071 ft | 419 kts | 228° |
| 2026-04-29 16:08 | 59.85868 | 4.06580 | 24417 ft | 424 kts | 217° |
| 2026-04-29 16:08 | 59.83311 | 4.03611 | 24767 ft | 429 kts | 206° |
| 2026-04-29 16:08 | 59.80576 | 4.01228 | 25102 ft | 431 kts | 205° |
| 2026-04-29 16:08 | 59.77814 | 3.98831 | 25454 ft | 433 kts | 205° |
| 2026-04-29 16:09 | 59.75050 | 3.96428 | 25806 ft | 435 kts | 205° |
| 2026-04-29 16:09 | 59.72268 | 3.94007 | 26157 ft | 437 kts | 205° |
| 2026-04-29 16:09 | 59.69478 | 3.91577 | 26508 ft | 438 kts | 205° |
| 2026-04-29 16:09 | 59.66689 | 3.89151 | 26894 ft | 439 kts | 205° |
| 2026-04-29 16:10 | 59.63889 | 3.86717 | 27257 ft | 440 kts | 205° |
| 2026-04-29 16:10 | 59.61079 | 3.84282 | 27594 ft | 442 kts | 205° |
| 2026-04-29 16:10 | 59.58259 | 3.81847 | 27934 ft | 444 kts | 205° |
| 2026-04-29 16:10 | 59.55421 | 3.79407 | 28261 ft | 445 kts | 205° |
| 2026-04-29 16:11 | 59.52576 | 3.76963 | 28574 ft | 448 kts | 205° |
| 2026-04-29 16:11 | 59.49719 | 3.74510 | 28874 ft | 450 kts | 205° |
| 2026-04-29 16:11 | 59.46844 | 3.72048 | 29178 ft | 451 kts | 205° |
| 2026-04-29 16:11 | 59.43951 | 3.69576 | 29474 ft | 453 kts | 205° |
| 2026-04-29 16:12 | 59.41057 | 3.67106 | 29759 ft | 455 kts | 205° |
| 2026-04-29 16:12 | 59.39135 | 3.65470 | 29945 ft | 456 kts | 205° |
| 2026-04-29 16:12 | 59.35228 | 3.62155 | 30337 ft | 458 kts | 205° |
| 2026-04-29 16:12 | 59.32296 | 3.59675 | 30623 ft | 460 kts | 205° |
| 2026-04-29 16:13 | 59.29359 | 3.57191 | 30873 ft | 461 kts | 205° |
| 2026-04-29 16:13 | 59.26408 | 3.54697 | 31209 ft | 460 kts | 204° |
| 2026-04-29 16:13 | 59.23475 | 3.52223 | 31575 ft | 459 kts | 204° |
| 2026-04-29 16:13 | 59.20545 | 3.49758 | 31936 ft | 458 kts | 204° |
| 2026-04-29 16:14 | 59.17627 | 3.47304 | 32302 ft | 456 kts | 204° |
| 2026-04-29 16:14 | 59.14714 | 3.44857 | 32671 ft | 455 kts | 204° |
| 2026-04-29 16:14 | 59.11805 | 3.42417 | 33038 ft | 454 kts | 204° |
| 2026-04-29 16:14 | 59.08909 | 3.39990 | 33404 ft | 453 kts | 204° |
| 2026-04-29 16:15 | 59.06057 | 3.37606 | 33764 ft | 451 kts | 204° |
| 2026-04-29 16:15 | 59.03169 | 3.35201 | 34130 ft | 450 kts | 204° |
| 2026-04-29 16:15 | 59.00293 | 3.32812 | 34481 ft | 449 kts | 204° |
| 2026-04-29 16:15 | 58.97422 | 3.30435 | 34772 ft | 448 kts | 204° |
| 2026-04-29 16:16 | 58.94559 | 3.28068 | 35047 ft | 448 kts | 204° |
| 2026-04-29 16:16 | 58.91689 | 3.25703 | 35316 ft | 447 kts | 204° |
| 2026-04-29 16:16 | 58.88828 | 3.23345 | 35602 ft | 446 kts | 204° |
| 2026-04-29 16:16 | 58.85973 | 3.20994 | 35870 ft | 446 kts | 204° |
| 2026-04-29 16:17 | 58.83116 | 3.18640 | 36131 ft | 445 kts | 204° |
| 2026-04-29 16:17 | 58.80275 | 3.16301 | 36396 ft | 444 kts | 204° |
| 2026-04-29 16:17 | 58.77430 | 3.13959 | 36510 ft | 443 kts | 204° |
| 2026-04-29 16:18 | 58.71821 | 3.09367 | 36526 ft | 439 kts | 204° |
| 2026-04-29 16:18 | 58.66197 | 3.04800 | 36530 ft | 439 kts | 204° |
| 2026-04-29 16:19 | 58.60578 | 3.00244 | 36527 ft | 439 kts | 204° |
| 2026-04-29 16:19 | 58.54942 | 2.95691 | 36528 ft | 438 kts | 204° |
| 2026-04-29 16:20 | 58.49322 | 2.91167 | 36527 ft | 438 kts | 204° |
| 2026-04-29 16:20 | 58.43699 | 2.86654 | 36522 ft | 438 kts | 204° |
| 2026-04-29 16:21 | 58.38180 | 2.81721 | 36523 ft | 438 kts | 213° |
| 2026-04-29 16:21 | 58.33184 | 2.75095 | 36523 ft | 438 kts | 216° |
| 2026-04-29 16:22 | 58.28233 | 2.68462 | 36525 ft | 438 kts | 216° |
| 2026-04-29 16:22 | 58.23240 | 2.61812 | 36530 ft | 438 kts | 216° |
| 2026-04-29 16:23 | 58.18247 | 2.55193 | 36527 ft | 438 kts | 216° |
| 2026-04-29 16:23 | 58.13243 | 2.48573 | 36520 ft | 438 kts | 216° |
| 2026-04-29 16:24 | 58.08264 | 2.41985 | 36511 ft | 439 kts | 216° |
| 2026-04-29 16:24 | 58.03260 | 2.35390 | 36517 ft | 439 kts | 216° |
| 2026-04-29 16:25 | 57.98208 | 2.28787 | 36522 ft | 439 kts | 216° |
| 2026-04-29 16:25 | 57.93194 | 2.22250 | 36525 ft | 439 kts | 215° |
| 2026-04-29 16:26 | 57.88178 | 2.15735 | 36521 ft | 439 kts | 215° |
| 2026-04-29 16:26 | 57.83130 | 2.09198 | 36521 ft | 440 kts | 215° |
| 2026-04-29 16:27 | 57.78118 | 2.02714 | 36522 ft | 440 kts | 215° |
| 2026-04-29 16:27 | 57.73048 | 1.96195 | 36522 ft | 440 kts | 215° |
| 2026-04-29 16:28 | 57.68001 | 1.89729 | 36525 ft | 440 kts | 215° |
| 2026-04-29 16:28 | 57.62972 | 1.83293 | 36523 ft | 440 kts | 214° |
| 2026-04-29 16:29 | 57.57882 | 1.76811 | 36516 ft | 441 kts | 214° |
| 2026-04-29 16:29 | 57.52834 | 1.70418 | 36518 ft | 441 kts | 214° |
| 2026-04-29 16:30 | 57.47722 | 1.63969 | 36519 ft | 442 kts | 214° |
| 2026-04-29 16:30 | 57.42666 | 1.57576 | 36523 ft | 442 kts | 214° |
| 2026-04-29 16:31 | 57.37554 | 1.51163 | 36525 ft | 442 kts | 214° |
| 2026-04-29 16:31 | 57.32481 | 1.44831 | 36522 ft | 442 kts | 214° |
| 2026-04-29 16:32 | 57.27360 | 1.38429 | 36522 ft | 442 kts | 214° |
| 2026-04-29 16:32 | 57.22282 | 1.32101 | 36524 ft | 442 kts | 214° |
| 2026-04-29 16:33 | 57.14585 | 1.22575 | 36522 ft | 442 kts | 214° |
| 2026-04-29 16:33 | 57.09485 | 1.16286 | 36520 ft | 443 kts | 213° |
| 2026-04-29 16:34 | 57.04355 | 1.09968 | 36514 ft | 443 kts | 213° |
| 2026-04-29 16:34 | 56.99219 | 1.03680 | 36516 ft | 444 kts | 213° |
| 2026-04-29 16:35 | 56.94073 | 0.97408 | 36516 ft | 444 kts | 213° |
| 2026-04-29 16:35 | 56.88964 | 0.91207 | 36516 ft | 444 kts | 213° |
| 2026-04-29 16:36 | 56.83810 | 0.84949 | 36524 ft | 444 kts | 213° |
| 2026-04-29 16:36 | 56.78653 | 0.78716 | 36523 ft | 444 kts | 212° |
| 2026-04-29 16:37 | 56.73501 | 0.72514 | 36521 ft | 444 kts | 213° |
| 2026-04-29 16:37 | 56.69217 | 0.67370 | 36516 ft | 444 kts | 213° |
| 2026-04-29 16:38 | 56.64052 | 0.61196 | 36515 ft | 444 kts | 213° |
| 2026-04-29 16:38 | 56.58057 | 0.54031 | 36514 ft | 444 kts | 212° |
| 2026-04-29 16:39 | 56.53733 | 0.48868 | 36522 ft | 444 kts | 212° |
| 2026-04-29 16:39 | 56.48574 | 0.42749 | 36517 ft | 443 kts | 212° |
| 2026-04-29 16:40 | 56.43434 | 0.36694 | 36517 ft | 443 kts | 212° |
| 2026-04-29 16:40 | 56.38267 | 0.30618 | 36513 ft | 443 kts | 212° |
| 2026-04-29 16:41 | 56.33087 | 0.24549 | 36510 ft | 443 kts | 212° |
| 2026-04-29 16:41 | 56.27924 | 0.18495 | 36512 ft | 443 kts | 212° |
| 2026-04-29 16:42 | 56.22756 | 0.12464 | 36515 ft | 442 kts | 211° |
| 2026-04-29 16:42 | 56.17592 | 0.06462 | 36512 ft | 442 kts | 211° |
| 2026-04-29 16:43 | 56.12427 | 0.00486 | 36508 ft | 442 kts | 211° |
| 2026-04-29 16:43 | 56.07263 | -0.05464 | 36508 ft | 441 kts | 211° |
| 2026-04-29 16:44 | 56.02105 | -0.11409 | 36509 ft | 441 kts | 211° |
| 2026-04-29 16:44 | 55.96972 | -0.17299 | 36506 ft | 441 kts | 211° |
| 2026-04-29 16:45 | 55.91803 | -0.23206 | 36506 ft | 441 kts | 211° |
| 2026-04-29 16:45 | 55.86636 | -0.29089 | 36502 ft | 441 kts | 211° |
| 2026-04-29 16:46 | 55.81463 | -0.34964 | 36503 ft | 441 kts | 211° |
| 2026-04-29 16:46 | 55.76286 | -0.40824 | 36512 ft | 441 kts | 210° |
| 2026-04-29 16:47 | 55.71098 | -0.46670 | 36508 ft | 441 kts | 210° |
| 2026-04-29 16:47 | 55.65913 | -0.52505 | 36502 ft | 441 kts | 210° |
| 2026-04-29 16:48 | 55.60729 | -0.58345 | 36500 ft | 441 kts | 210° |
| 2026-04-29 16:48 | 55.55575 | -0.64115 | 36494 ft | 441 kts | 210° |
| 2026-04-29 16:49 | 55.50378 | -0.69896 | 36495 ft | 441 kts | 210° |
| 2026-04-29 16:49 | 55.45179 | -0.75663 | 36489 ft | 441 kts | 210° |
| 2026-04-29 16:50 | 55.39983 | -0.81422 | 36487 ft | 441 kts | 210° |
| 2026-04-29 16:50 | 55.34777 | -0.87172 | 36486 ft | 441 kts | 210° |
| 2026-04-29 16:51 | 55.29574 | -0.92895 | 36484 ft | 441 kts | 210° |
| 2026-04-29 16:51 | 55.24400 | -0.98581 | 36483 ft | 441 kts | 209° |
| 2026-04-29 16:52 | 55.19152 | -1.04159 | 36478 ft | 440 kts | 203° |
| 2026-04-29 16:52 | 55.13440 | -1.07768 | 36477 ft | 436 kts | 194° |
| 2026-04-29 16:53 | 55.07641 | -1.10878 | 36482 ft | 436 kts | 194° |
| 2026-04-29 16:53 | 55.01836 | -1.14024 | 36483 ft | 436 kts | 194° |
| 2026-04-29 16:54 | 54.96035 | -1.17141 | 36493 ft | 436 kts | 193° |
| 2026-04-29 16:54 | 54.90240 | -1.20236 | 36489 ft | 435 kts | 193° |
| 2026-04-29 16:55 | 54.84450 | -1.23324 | 36484 ft | 435 kts | 193° |
| 2026-04-29 16:55 | 54.78689 | -1.26390 | 36478 ft | 435 kts | 193° |
| 2026-04-29 16:56 | 54.72899 | -1.29456 | 36473 ft | 435 kts | 193° |
| 2026-04-29 16:56 | 54.67113 | -1.32503 | 36464 ft | 435 kts | 193° |
| 2026-04-29 16:57 | 54.61324 | -1.35538 | 36132 ft | 433 kts | 193° |
| 2026-04-29 16:57 | 54.58448 | -1.37045 | 35882 ft | 432 kts | 193° |
| 2026-04-29 16:57 | 54.55566 | -1.38561 | 35629 ft | 432 kts | 193° |
| 2026-04-29 16:58 | 54.52693 | -1.40071 | 35382 ft | 431 kts | 193° |
| 2026-04-29 16:58 | 54.49829 | -1.41573 | 35138 ft | 431 kts | 193° |
| 2026-04-29 16:58 | 54.46953 | -1.43080 | 34910 ft | 430 kts | 193° |
| 2026-04-29 16:58 | 54.44097 | -1.44573 | 34674 ft | 430 kts | 192° |
| 2026-04-29 16:59 | 54.41233 | -1.46065 | 34429 ft | 429 kts | 192° |
| 2026-04-29 16:59 | 54.38381 | -1.47547 | 34155 ft | 429 kts | 192° |
| 2026-04-29 16:59 | 54.35517 | -1.49033 | 33545 ft | 429 kts | 193° |
| 2026-04-29 16:59 | 54.32678 | -1.50503 | 33061 ft | 424 kts | 193° |
| 2026-04-29 17:00 | 54.29865 | -1.51958 | 32528 ft | 420 kts | 193° |
| 2026-04-29 17:00 | 54.27074 | -1.53400 | 32016 ft | 417 kts | 193° |
| 2026-04-29 17:00 | 54.24305 | -1.54831 | 31501 ft | 414 kts | 193° |
| 2026-04-29 17:00 | 54.21561 | -1.56246 | 30997 ft | 411 kts | 193° |
| 2026-04-29 17:01 | 54.18835 | -1.57648 | 30502 ft | 408 kts | 193° |
| 2026-04-29 17:01 | 54.16125 | -1.59039 | 29952 ft | 404 kts | 193° |
| 2026-04-29 17:01 | 54.13448 | -1.60414 | 29429 ft | 400 kts | 193° |
| 2026-04-29 17:01 | 54.10794 | -1.61776 | 28941 ft | 396 kts | 193° |
| 2026-04-29 17:02 | 54.08207 | -1.63102 | 28467 ft | 391 kts | 193° |
| 2026-04-29 17:02 | 54.05612 | -1.64429 | 27994 ft | 387 kts | 193° |
| 2026-04-29 17:02 | 54.03111 | -1.66109 | 27528 ft | 387 kts | 203° |
| 2026-04-29 17:02 | 54.00814 | -1.68549 | 27349 ft | 394 kts | 213° |
| 2026-04-29 17:03 | 53.98741 | -1.71661 | 27389 ft | 400 kts | 219° |
| 2026-04-29 17:03 | 53.96712 | -1.74915 | 27383 ft | 401 kts | 219° |
| 2026-04-29 17:03 | 53.94677 | -1.78158 | 27384 ft | 401 kts | 218° |
| 2026-04-29 17:03 | 53.92640 | -1.81393 | 27383 ft | 401 kts | 218° |
| 2026-04-29 17:04 | 53.90563 | -1.84542 | 27378 ft | 398 kts | 211° |
| 2026-04-29 17:04 | 53.88187 | -1.86813 | 27395 ft | 391 kts | 200° |
| 2026-04-29 17:04 | 53.85709 | -1.88723 | 27381 ft | 391 kts | 200° |
| 2026-04-29 17:04 | 53.83235 | -1.90612 | 27383 ft | 391 kts | 200° |
| 2026-04-29 17:05 | 53.80748 | -1.92497 | 27375 ft | 391 kts | 200° |
| 2026-04-29 17:05 | 53.78266 | -1.94374 | 27375 ft | 391 kts | 200° |
| 2026-04-29 17:05 | 53.75781 | -1.96249 | 27374 ft | 391 kts | 200° |
| 2026-04-29 17:05 | 53.73298 | -1.98121 | 27218 ft | 390 kts | 200° |
| 2026-04-29 17:06 | 53.70835 | -1.99980 | 26793 ft | 385 kts | 199° |
| 2026-04-29 17:06 | 53.68399 | -2.01818 | 26345 ft | 381 kts | 200° |
| 2026-04-29 17:06 | 53.65990 | -2.03634 | 25912 ft | 377 kts | 199° |
| 2026-04-29 17:06 | 53.63637 | -2.05406 | 25492 ft | 373 kts | 199° |
| 2026-04-29 17:07 | 53.61282 | -2.07178 | 25075 ft | 369 kts | 199° |
| 2026-04-29 17:07 | 53.58950 | -2.08926 | 24664 ft | 366 kts | 199° |
| 2026-04-29 17:07 | 53.56637 | -2.10653 | 24252 ft | 362 kts | 199° |
| 2026-04-29 17:07 | 53.54340 | -2.12365 | 23796 ft | 360 kts | 199° |
| 2026-04-29 17:08 | 53.52060 | -2.14065 | 23364 ft | 356 kts | 199° |
| 2026-04-29 17:08 | 53.49813 | -2.15741 | 22958 ft | 351 kts | 199° |
| 2026-04-29 17:08 | 53.47593 | -2.17395 | 22541 ft | 348 kts | 199° |
| 2026-04-29 17:08 | 53.45389 | -2.19031 | 22145 ft | 344 kts | 198° |
| 2026-04-29 17:09 | 53.43208 | -2.20645 | 21723 ft | 341 kts | 198° |
| 2026-04-29 17:09 | 53.41046 | -2.22253 | 21317 ft | 338 kts | 199° |
| 2026-04-29 17:09 | 53.38868 | -2.23643 | 20904 ft | 330 kts | 189° |
| 2026-04-29 17:09 | 53.36631 | -2.24223 | 20495 ft | 322 kts | 176° |
| 2026-04-29 17:10 | 53.34387 | -2.23942 | 20336 ft | 329 kts | 165° |
| 2026-04-29 17:10 | 53.32180 | -2.22823 | 20352 ft | 334 kts | 153° |
| 2026-04-29 17:10 | 53.30130 | -2.21065 | 20053 ft | 331 kts | 148° |
| 2026-04-29 17:10 | 53.28137 | -2.19235 | 19579 ft | 330 kts | 148° |
| 2026-04-29 17:11 | 53.26129 | -2.17384 | 19127 ft | 328 kts | 148° |
| 2026-04-29 17:11 | 53.24136 | -2.15545 | 18691 ft | 327 kts | 148° |
| 2026-04-29 17:11 | 53.22147 | -2.13717 | 18204 ft | 325 kts | 148° |
| 2026-04-29 17:11 | 53.20178 | -2.11911 | 17762 ft | 322 kts | 148° |
| 2026-04-29 17:12 | 53.18220 | -2.10114 | 17310 ft | 319 kts | 148° |
| 2026-04-29 17:12 | 53.16279 | -2.08329 | 16868 ft | 317 kts | 148° |
| 2026-04-29 17:12 | 53.14356 | -2.06560 | 16438 ft | 315 kts | 148° |
| 2026-04-29 17:12 | 53.13088 | -2.05394 | 16159 ft | 314 kts | 148° |
| 2026-04-29 17:13 | 53.10543 | -2.03056 | 15588 ft | 311 kts | 149° |
| 2026-04-29 17:13 | 53.08647 | -2.01320 | 15159 ft | 310 kts | 148° |
| 2026-04-29 17:13 | 53.06761 | -1.99597 | 14779 ft | 308 kts | 149° |
| 2026-04-29 17:13 | 53.04842 | -1.98016 | 14384 ft | 308 kts | 156° |
| 2026-04-29 17:14 | 53.02764 | -1.97136 | 13987 ft | 310 kts | 169° |
| 2026-04-29 17:14 | 53.00618 | -1.96835 | 13583 ft | 308 kts | 172° |
| 2026-04-29 17:14 | 52.98511 | -1.96567 | 13162 ft | 307 kts | 171° |
| 2026-04-29 17:14 | 52.96386 | -1.96294 | 12748 ft | 305 kts | 171° |
| 2026-04-29 17:15 | 52.94276 | -1.96019 | 12335 ft | 304 kts | 171° |
| 2026-04-29 17:15 | 52.92175 | -1.95743 | 11926 ft | 302 kts | 171° |
| 2026-04-29 17:15 | 52.90085 | -1.95469 | 11519 ft | 300 kts | 171° |
| 2026-04-29 17:15 | 52.88011 | -1.95197 | 11109 ft | 299 kts | 171° |
| 2026-04-29 17:16 | 52.85945 | -1.94923 | 10618 ft | 296 kts | 171° |
| 2026-04-29 17:16 | 52.83907 | -1.94811 | 10242 ft | 289 kts | 182° |
| 2026-04-29 17:16 | 52.81965 | -1.95512 | 9861 ft | 283 kts | 189° |
| 2026-04-29 17:16 | 52.80087 | -1.96394 | 9334 ft | 279 kts | 190° |
| 2026-04-29 17:17 | 52.78228 | -1.97305 | 8777 ft | 277 kts | 190° |
| 2026-04-29 17:17 | 52.76384 | -1.98210 | 8215 ft | 276 kts | 190° |
| 2026-04-29 17:17 | 52.74551 | -1.99117 | 7684 ft | 274 kts | 191° |
| 2026-04-29 17:17 | 52.72728 | -2.00015 | 7129 ft | 273 kts | 191° |
| 2026-04-29 17:18 | 52.70914 | -2.00911 | 6597 ft | 271 kts | 190° |
| 2026-04-29 17:18 | 52.69115 | -2.01808 | 6069 ft | 268 kts | 190° |
| 2026-04-29 17:18 | 52.67341 | -2.02708 | 5515 ft | 266 kts | 190° |
| 2026-04-29 17:18 | 52.65583 | -2.03626 | 4980 ft | 264 kts | 190° |
| 2026-04-29 17:19 | 52.63837 | -2.04565 | 4516 ft | 264 kts | 190° |
| 2026-04-29 17:19 | 52.62078 | -2.05312 | 4145 ft | 253 kts | 175° |
| 2026-04-29 17:19 | 52.60443 | -2.04774 | 3834 ft | 233 kts | 145° |
| 2026-04-29 17:19 | 52.59342 | -2.03048 | 3584 ft | 218 kts | 117° |
| 2026-04-29 17:20 | 52.58708 | -2.00833 | 3333 ft | 212 kts | 111° |
| 2026-04-29 17:20 | 52.58144 | -1.98624 | 3118 ft | 206 kts | 110° |
| 2026-04-29 17:20 | 52.57576 | -1.96504 | 2897 ft | 201 kts | 110° |
| 2026-04-29 17:20 | 52.57000 | -1.94429 | 2637 ft | 197 kts | 110° |
| 2026-04-29 17:21 | 52.56439 | -1.92460 | 2537 ft | 185 kts | 110° |
| 2026-04-29 17:21 | 52.55902 | -1.90581 | 2529 ft | 181 kts | 110° |
| 2026-04-29 17:21 | 52.55369 | -1.88710 | 2504 ft | 181 kts | 111° |
| 2026-04-29 17:21 | 52.54800 | -1.86930 | 2406 ft | 169 kts | 119° |
| 2026-04-29 17:22 | 52.54094 | -1.85506 | 2311 ft | 155 kts | 124° |
| 2026-04-29 17:22 | 52.53398 | -1.84190 | 2080 ft | 150 kts | 124° |
| 2026-04-29 17:22 | 52.52640 | -1.83054 | 1812 ft | 147 kts | 135° |
| 2026-04-29 17:22 | 52.51826 | -1.82073 | 1704 ft | 141 kts | 134° |
| 2026-04-29 17:23 | 52.51054 | -1.81125 | 1576 ft | 138 kts | 135° |
| 2026-04-29 17:23 | 52.50262 | -1.80245 | 1379 ft | 137 kts | 137° |
| 2026-04-29 17:23 | 52.49477 | -1.79386 | 1111 ft | 135 kts | 136° |
| 2026-04-29 17:23 | 52.48699 | -1.78495 | 993 ft | 137 kts | 136° |
| 2026-04-29 17:24 | 52.47926 | -1.77595 | 794 ft | 136 kts | 138° |
| 2026-04-29 17:24 | 52.47134 | -1.76738 | 586 ft | 137 kts | 136° |
| 2026-04-29 17:24 | 52.46339 | -1.75865 | 359 ft | 138 kts | 136° |
| 2026-04-29 17:24 | 52.45609 | -1.75043 | 324 ft | 106 kts | 146° |
| 2026-04-29 17:25 | 52.45151 | -1.74536 | 329 ft | 55 kts | 146° |
| 2026-04-29 17:25 | 52.44965 | -1.74331 | 323 ft | 13 kts | 143° |
| 2026-04-29 17:25 | 52.44951 | -1.74201 | 325 ft | 11 kts | 74° |
| 2026-04-29 17:25 | 52.44972 | -1.74085 | 324 ft | 11 kts | 74° |
| 2026-04-29 17:26 | 52.44994 | -1.73945 | 324 ft | 11 kts | 71° |
| 2026-04-29 17:26 | 52.45035 | -1.73835 | 323 ft | 11 kts | 57° |
| 2026-04-29 17:26 | 52.45085 | -1.73735 | 323 ft | 12 kts | 35° |
| 2026-04-29 17:26 | 52.45133 | -1.73644 | 323 ft | 10 kts | 58° |
| 2026-04-29 17:27 | 52.45169 | -1.73555 | 323 ft | 9 kts | 56° |
| 2026-04-29 17:27 | 52.45196 | -1.73492 | 323 ft | 6 kts | 55° |
| 2026-04-29 17:27 | 52.45209 | -1.73443 | 323 ft | 3 kts | 87° |
| 2026-04-29 17:27 | 52.45208 | -1.73437 | 323 ft | 1 kts | 96° |
| 2026-04-29 17:28 | 52.45208 | -1.73436 | 323 ft | 0 kts | 97° |
| 2026-04-29 17:28 | 52.45207 | -1.73434 | 323 ft | 1 kts | 99° |
| 2026-04-29 17:28 | 52.45205 | -1.73426 | 323 ft | 0 kts | 112° |
| 2026-04-29 17:29 | 52.45190 | -1.73408 | 323 ft | 4 kts | 152° |
| 2026-04-29 17:29 | 52.45179 | -1.73397 | 323 ft | 2 kts | 148° |
| 2026-04-29 17:29 | 52.45170 | -1.73387 | 323 ft | 1 kts | 144° |
| 2026-04-29 17:29 | 52.45166 | -1.73382 | 323 ft | 0 kts | 143° |
| 2026-04-29 17:30 | 52.45165 | -1.73381 | 323 ft | 0 kts | 143° |